sensor_id;sensor_type;location;lat;lon;timestamp;P1;durP1;ratioP1;P2;durP2;ratioP2
32393;SDS011;18853;45.426;9.206;2023-12-29T00:00:32;37.28;;;26.63;;
32393;SDS011;18853;45.426;9.206;2023-12-29T00:02:58;36.45;;;26.67;;
32393;SDS011;18853;45.426;9.206;2023-12-29T00:05:24;39.08;;;26.60;;
32393;SDS011;18853;45.426;9.206;2023-12-29T00:07:50;36.60;;;26.30;;
32393;SDS011;18853;45.426;9.206;2023-12-29T00:10:15;37.95;;;26.77;;
32393;SDS011;18853;45.426;9.206;2023-12-29T00:12:41;32.72;;;25.90;;
32393;SDS011;18853;45.426;9.206;2023-12-29T00:15:07;31.58;;;25.65;;
32393;SDS011;18853;45.426;9.206;2023-12-29T00:17:33;31.05;;;26.70;;
32393;SDS011;18853;45.426;9.206;2023-12-29T00:20:02;36.45;;;25.88;;
32393;SDS011;18853;45.426;9.206;2023-12-29T00:22:29;32.95;;;25.52;;
32393;SDS011;18853;45.426;9.206;2023-12-29T00:24:54;30.52;;;25.10;;
32393;SDS011;18853;45.426;9.206;2023-12-29T00:27:20;35.47;;;26.85;;
32393;SDS011;18853;45.426;9.206;2023-12-29T00:29:46;33.05;;;25.25;;
32393;SDS011;18853;45.426;9.206;2023-12-29T00:32:11;40.90;;;26.98;;
32393;SDS011;18853;45.426;9.206;2023-12-29T00:34:37;35.42;;;25.60;;
32393;SDS011;18853;45.426;9.206;2023-12-29T00:37:02;32.33;;;24.98;;
32393;SDS011;18853;45.426;9.206;2023-12-29T00:39:28;36.63;;;25.83;;
32393;SDS011;18853;45.426;9.206;2023-12-29T00:41:55;33.92;;;26.27;;
32393;SDS011;18853;45.426;9.206;2023-12-29T00:44:22;35.60;;;27.02;;
32393;SDS011;18853;45.426;9.206;2023-12-29T00:46:48;34.35;;;24.73;;
32393;SDS011;18853;45.426;9.206;2023-12-29T00:49:14;34.17;;;25.30;;
32393;SDS011;18853;45.426;9.206;2023-12-29T00:51:40;34.17;;;25.55;;
32393;SDS011;18853;45.426;9.206;2023-12-29T00:54:08;34.30;;;25.65;;
32393;SDS011;18853;45.426;9.206;2023-12-29T00:56:34;35.03;;;26.08;;
32393;SDS011;18853;45.426;9.206;2023-12-29T00:58:59;33.67;;;25.10;;
32393;SDS011;18853;45.426;9.206;2023-12-29T01:01:25;35.75;;;26.77;;
32393;SDS011;18853;45.426;9.206;2023-12-29T01:03:50;34.55;;;25.95;;
32393;SDS011;18853;45.426;9.206;2023-12-29T01:06:19;33.63;;;24.95;;
32393;SDS011;18853;45.426;9.206;2023-12-29T01:08:45;34.42;;;26.20;;
32393;SDS011;18853;45.426;9.206;2023-12-29T01:11:10;34.35;;;25.15;;
32393;SDS011;18853;45.426;9.206;2023-12-29T01:13:36;34.05;;;25.17;;
32393;SDS011;18853;45.426;9.206;2023-12-29T01:16:02;31.58;;;24.83;;
32393;SDS011;18853;45.426;9.206;2023-12-29T01:18:27;31.85;;;25.23;;
32393;SDS011;18853;45.426;9.206;2023-12-29T01:20:53;32.35;;;25.27;;
32393;SDS011;18853;45.426;9.206;2023-12-29T01:23:18;32.50;;;24.00;;
32393;SDS011;18853;45.426;9.206;2023-12-29T01:25:44;28.85;;;23.90;;
32393;SDS011;18853;45.426;9.206;2023-12-29T01:28:10;31.83;;;24.52;;
32393;SDS011;18853;45.426;9.206;2023-12-29T01:30:36;30.75;;;24.17;;
32393;SDS011;18853;45.426;9.206;2023-12-29T01:33:01;34.30;;;24.33;;
32393;SDS011;18853;45.426;9.206;2023-12-29T01:35:27;32.35;;;24.58;;
32393;SDS011;18853;45.426;9.206;2023-12-29T01:37:52;34.65;;;24.20;;
32393;SDS011;18853;45.426;9.206;2023-12-29T01:40:20;32.53;;;23.90;;
32393;SDS011;18853;45.426;9.206;2023-12-29T01:42:45;30.05;;;23.83;;
32393;SDS011;18853;45.426;9.206;2023-12-29T01:45:19;34.17;;;24.65;;
32393;SDS011;18853;45.426;9.206;2023-12-29T01:47:49;35.90;;;23.80;;
32393;SDS011;18853;45.426;9.206;2023-12-29T01:50:16;36.63;;;25.33;;
32393;SDS011;18853;45.426;9.206;2023-12-29T01:52:42;35.83;;;25.30;;
32393;SDS011;18853;45.426;9.206;2023-12-29T01:55:10;33.03;;;25.80;;
32393;SDS011;18853;45.426;9.206;2023-12-29T01:57:40;33.25;;;25.95;;
32393;SDS011;18853;45.426;9.206;2023-12-29T02:00:06;30.80;;;24.42;;
32393;SDS011;18853;45.426;9.206;2023-12-29T02:02:32;32.58;;;25.13;;
32393;SDS011;18853;45.426;9.206;2023-12-29T02:04:58;34.53;;;25.58;;
32393;SDS011;18853;45.426;9.206;2023-12-29T02:07:25;33.88;;;25.58;;
32393;SDS011;18853;45.426;9.206;2023-12-29T02:09:55;32.15;;;25.02;;
32393;SDS011;18853;45.426;9.206;2023-12-29T02:12:21;34.15;;;25.40;;
32393;SDS011;18853;45.426;9.206;2023-12-29T02:14:47;33.42;;;25.30;;
32393;SDS011;18853;45.426;9.206;2023-12-29T02:17:20;35.53;;;25.60;;
32393;SDS011;18853;45.426;9.206;2023-12-29T02:19:51;30.95;;;24.83;;
32393;SDS011;18853;45.426;9.206;2023-12-29T02:22:17;32.05;;;24.10;;
32393;SDS011;18853;45.426;9.206;2023-12-29T02:24:46;31.90;;;24.20;;
32393;SDS011;18853;45.426;9.206;2023-12-29T02:30:09;31.35;;;24.25;;
32393;SDS011;18853;45.426;9.206;2023-12-29T02:35:06;34.55;;;26.00;;
32393;SDS011;18853;45.426;9.206;2023-12-29T02:37:35;35.65;;;25.75;;
32393;SDS011;18853;45.426;9.206;2023-12-29T02:40:02;34.55;;;25.20;;
32393;SDS011;18853;45.426;9.206;2023-12-29T02:42:28;35.65;;;25.33;;
32393;SDS011;18853;45.426;9.206;2023-12-29T02:44:54;33.55;;;25.13;;
32393;SDS011;18853;45.426;9.206;2023-12-29T02:47:19;36.45;;;26.00;;
32393;SDS011;18853;45.426;9.206;2023-12-29T02:49:46;34.45;;;24.70;;
32393;SDS011;18853;45.426;9.206;2023-12-29T02:52:12;32.13;;;23.83;;
32393;SDS011;18853;45.426;9.206;2023-12-29T02:54:38;33.17;;;26.17;;
32393;SDS011;18853;45.426;9.206;2023-12-29T02:57:03;34.28;;;24.85;;
32393;SDS011;18853;45.426;9.206;2023-12-29T02:59:29;32.85;;;25.67;;
32393;SDS011;18853;45.426;9.206;2023-12-29T03:01:55;32.83;;;25.92;;
32393;SDS011;18853;45.426;9.206;2023-12-29T03:04:20;34.28;;;24.90;;
32393;SDS011;18853;45.426;9.206;2023-12-29T03:06:46;34.75;;;24.73;;
32393;SDS011;18853;45.426;9.206;2023-12-29T03:09:11;34.33;;;25.10;;
32393;SDS011;18853;45.426;9.206;2023-12-29T03:11:37;34.40;;;24.70;;
32393;SDS011;18853;45.426;9.206;2023-12-29T03:14:02;34.50;;;26.00;;
32393;SDS011;18853;45.426;9.206;2023-12-29T03:16:28;35.83;;;25.60;;
32393;SDS011;18853;45.426;9.206;2023-12-29T03:18:54;32.58;;;25.92;;
32393;SDS011;18853;45.426;9.206;2023-12-29T03:21:19;35.92;;;25.60;;
32393;SDS011;18853;45.426;9.206;2023-12-29T03:23:45;33.75;;;25.35;;
32393;SDS011;18853;45.426;9.206;2023-12-29T03:26:11;37.38;;;25.95;;
32393;SDS011;18853;45.426;9.206;2023-12-29T03:28:37;33.15;;;25.90;;
32393;SDS011;18853;45.426;9.206;2023-12-29T03:31:02;31.83;;;25.10;;
32393;SDS011;18853;45.426;9.206;2023-12-29T03:33:28;35.20;;;26.73;;
32393;SDS011;18853;45.426;9.206;2023-12-29T03:35:54;35.67;;;26.77;;
32393;SDS011;18853;45.426;9.206;2023-12-29T03:38:20;34.22;;;25.67;;
32393;SDS011;18853;45.426;9.206;2023-12-29T03:40:46;33.55;;;25.42;;
32393;SDS011;18853;45.426;9.206;2023-12-29T03:43:11;36.65;;;25.33;;
32393;SDS011;18853;45.426;9.206;2023-12-29T03:45:37;34.80;;;26.58;;
32393;SDS011;18853;45.426;9.206;2023-12-29T03:48:02;32.17;;;25.48;;
32393;SDS011;18853;45.426;9.206;2023-12-29T03:50:28;35.70;;;26.38;;
32393;SDS011;18853;45.426;9.206;2023-12-29T03:52:54;34.83;;;26.55;;
32393;SDS011;18853;45.426;9.206;2023-12-29T03:55:19;35.78;;;26.45;;
32393;SDS011;18853;45.426;9.206;2023-12-29T03:57:45;39.00;;;27.38;;
32393;SDS011;18853;45.426;9.206;2023-12-29T04:00:14;33.53;;;26.85;;
32393;SDS011;18853;45.426;9.206;2023-12-29T04:02:40;35.30;;;27.27;;
32393;SDS011;18853;45.426;9.206;2023-12-29T04:05:06;35.28;;;27.60;;
32393;SDS011;18853;45.426;9.206;2023-12-29T04:07:33;37.33;;;27.42;;
32393;SDS011;18853;45.426;9.206;2023-12-29T04:09:59;35.08;;;26.67;;
32393;SDS011;18853;45.426;9.206;2023-12-29T04:12:24;41.22;;;28.58;;
32393;SDS011;18853;45.426;9.206;2023-12-29T04:14:50;38.20;;;27.67;;
32393;SDS011;18853;45.426;9.206;2023-12-29T04:17:15;36.53;;;27.05;;
32393;SDS011;18853;45.426;9.206;2023-12-29T04:19:41;38.42;;;27.13;;
32393;SDS011;18853;45.426;9.206;2023-12-29T04:22:07;37.10;;;27.83;;
32393;SDS011;18853;45.426;9.206;2023-12-29T04:24:33;37.10;;;28.98;;
32393;SDS011;18853;45.426;9.206;2023-12-29T04:26:59;35.70;;;27.13;;
32393;SDS011;18853;45.426;9.206;2023-12-29T04:29:24;36.60;;;26.95;;
32393;SDS011;18853;45.426;9.206;2023-12-29T04:31:50;33.25;;;26.27;;
32393;SDS011;18853;45.426;9.206;2023-12-29T04:34:16;43.90;;;28.65;;
32393;SDS011;18853;45.426;9.206;2023-12-29T04:36:41;37.40;;;27.27;;
32393;SDS011;18853;45.426;9.206;2023-12-29T04:39:07;40.75;;;28.73;;
32393;SDS011;18853;45.426;9.206;2023-12-29T04:41:34;38.20;;;27.58;;
32393;SDS011;18853;45.426;9.206;2023-12-29T04:44:00;37.03;;;27.95;;
32393;SDS011;18853;45.426;9.206;2023-12-29T04:46:25;35.17;;;26.98;;
32393;SDS011;18853;45.426;9.206;2023-12-29T04:48:51;39.92;;;27.65;;
32393;SDS011;18853;45.426;9.206;2023-12-29T04:51:17;35.35;;;27.70;;
32393;SDS011;18853;45.426;9.206;2023-12-29T04:53:42;35.25;;;27.73;;
32393;SDS011;18853;45.426;9.206;2023-12-29T04:56:08;37.97;;;28.55;;
32393;SDS011;18853;45.426;9.206;2023-12-29T04:58:34;35.10;;;28.20;;
32393;SDS011;18853;45.426;9.206;2023-12-29T05:00:59;36.03;;;27.95;;
32393;SDS011;18853;45.426;9.206;2023-12-29T05:03:25;36.65;;;28.05;;
32393;SDS011;18853;45.426;9.206;2023-12-29T05:05:50;36.42;;;28.27;;
32393;SDS011;18853;45.426;9.206;2023-12-29T05:08:16;43.80;;;30.30;;
32393;SDS011;18853;45.426;9.206;2023-12-29T05:10:41;35.47;;;27.55;;
32393;SDS011;18853;45.426;9.206;2023-12-29T05:13:07;41.75;;;29.13;;
32393;SDS011;18853;45.426;9.206;2023-12-29T05:15:32;43.20;;;30.50;;
32393;SDS011;18853;45.426;9.206;2023-12-29T05:20:27;39.80;;;28.73;;
32393;SDS011;18853;45.426;9.206;2023-12-29T05:22:52;41.03;;;29.55;;
32393;SDS011;18853;45.426;9.206;2023-12-29T05:25:18;41.45;;;30.58;;
32393;SDS011;18853;45.426;9.206;2023-12-29T05:27:47;42.92;;;29.88;;
32393;SDS011;18853;45.426;9.206;2023-12-29T05:30:12;36.35;;;28.33;;
32393;SDS011;18853;45.426;9.206;2023-12-29T05:32:38;44.80;;;31.52;;
32393;SDS011;18853;45.426;9.206;2023-12-29T05:35:04;41.60;;;29.50;;
32393;SDS011;18853;45.426;9.206;2023-12-29T05:37:30;40.35;;;30.58;;
32393;SDS011;18853;45.426;9.206;2023-12-29T05:39:55;42.85;;;29.77;;
32393;SDS011;18853;45.426;9.206;2023-12-29T05:42:21;40.38;;;29.92;;
32393;SDS011;18853;45.426;9.206;2023-12-29T05:44:46;37.88;;;28.65;;
32393;SDS011;18853;45.426;9.206;2023-12-29T05:47:12;38.10;;;30.58;;
32393;SDS011;18853;45.426;9.206;2023-12-29T05:49:38;43.95;;;28.55;;
32393;SDS011;18853;45.426;9.206;2023-12-29T05:52:07;40.33;;;28.33;;
32393;SDS011;18853;45.426;9.206;2023-12-29T05:54:33;39.80;;;29.52;;
32393;SDS011;18853;45.426;9.206;2023-12-29T05:56:59;41.50;;;29.58;;
32393;SDS011;18853;45.426;9.206;2023-12-29T05:59:24;38.38;;;27.80;;
32393;SDS011;18853;45.426;9.206;2023-12-29T06:01:50;36.65;;;28.10;;
32393;SDS011;18853;45.426;9.206;2023-12-29T06:04:16;40.20;;;29.08;;
32393;SDS011;18853;45.426;9.206;2023-12-29T06:06:42;35.88;;;27.52;;
32393;SDS011;18853;45.426;9.206;2023-12-29T06:09:10;38.30;;;27.77;;
32393;SDS011;18853;45.426;9.206;2023-12-29T06:11:36;41.58;;;28.52;;
32393;SDS011;18853;45.426;9.206;2023-12-29T06:14:02;34.65;;;26.45;;
32393;SDS011;18853;45.426;9.206;2023-12-29T06:16:28;38.33;;;26.98;;
32393;SDS011;18853;45.426;9.206;2023-12-29T06:18:55;38.25;;;27.42;;
32393;SDS011;18853;45.426;9.206;2023-12-29T06:21:21;36.38;;;26.33;;
32393;SDS011;18853;45.426;9.206;2023-12-29T06:23:47;39.05;;;27.55;;
32393;SDS011;18853;45.426;9.206;2023-12-29T06:26:13;39.60;;;27.63;;
32393;SDS011;18853;45.426;9.206;2023-12-29T06:28:40;41.60;;;28.88;;
32393;SDS011;18853;45.426;9.206;2023-12-29T06:31:06;36.33;;;27.92;;
32393;SDS011;18853;45.426;9.206;2023-12-29T06:33:32;44.47;;;29.50;;
32393;SDS011;18853;45.426;9.206;2023-12-29T06:35:58;42.00;;;30.80;;
32393;SDS011;18853;45.426;9.206;2023-12-29T06:38:23;42.58;;;28.98;;
32393;SDS011;18853;45.426;9.206;2023-12-29T06:40:49;38.05;;;29.30;;
32393;SDS011;18853;45.426;9.206;2023-12-29T06:43:14;36.25;;;28.40;;
32393;SDS011;18853;45.426;9.206;2023-12-29T06:45:40;40.13;;;31.02;;
32393;SDS011;18853;45.426;9.206;2023-12-29T06:48:06;43.25;;;34.97;;
32393;SDS011;18853;45.426;9.206;2023-12-29T06:50:31;46.42;;;37.67;;
32393;SDS011;18853;45.426;9.206;2023-12-29T06:52:57;47.40;;;37.25;;
32393;SDS011;18853;45.426;9.206;2023-12-29T06:55:23;42.22;;;31.25;;
32393;SDS011;18853;45.426;9.206;2023-12-29T06:57:50;42.35;;;32.75;;
32393;SDS011;18853;45.426;9.206;2023-12-29T07:00:16;40.65;;;31.75;;
32393;SDS011;18853;45.426;9.206;2023-12-29T07:02:42;37.05;;;29.63;;
32393;SDS011;18853;45.426;9.206;2023-12-29T07:05:07;39.05;;;29.48;;
32393;SDS011;18853;45.426;9.206;2023-12-29T07:07:34;38.60;;;29.83;;
32393;SDS011;18853;45.426;9.206;2023-12-29T07:10:00;34.90;;;27.15;;
32393;SDS011;18853;45.426;9.206;2023-12-29T07:12:26;35.53;;;27.75;;
32393;SDS011;18853;45.426;9.206;2023-12-29T07:14:52;39.05;;;28.02;;
32393;SDS011;18853;45.426;9.206;2023-12-29T07:17:17;39.47;;;28.92;;
32393;SDS011;18853;45.426;9.206;2023-12-29T07:19:43;40.50;;;27.67;;
32393;SDS011;18853;45.426;9.206;2023-12-29T07:22:09;35.92;;;27.60;;
32393;SDS011;18853;45.426;9.206;2023-12-29T07:24:35;36.70;;;27.00;;
32393;SDS011;18853;45.426;9.206;2023-12-29T07:27:01;35.83;;;27.35;;
32393;SDS011;18853;45.426;9.206;2023-12-29T07:29:27;39.17;;;27.10;;
32393;SDS011;18853;45.426;9.206;2023-12-29T07:31:52;37.15;;;27.13;;
32393;SDS011;18853;45.426;9.206;2023-12-29T07:34:18;32.50;;;26.58;;
32393;SDS011;18853;45.426;9.206;2023-12-29T07:36:44;35.17;;;26.88;;
32393;SDS011;18853;45.426;9.206;2023-12-29T07:39:10;35.75;;;26.48;;
32393;SDS011;18853;45.426;9.206;2023-12-29T07:41:42;41.58;;;27.30;;
32393;SDS011;18853;45.426;9.206;2023-12-29T07:44:09;36.60;;;26.85;;
32393;SDS011;18853;45.426;9.206;2023-12-29T07:46:36;34.55;;;26.60;;
32393;SDS011;18853;45.426;9.206;2023-12-29T07:49:02;37.28;;;28.40;;
32393;SDS011;18853;45.426;9.206;2023-12-29T07:51:29;37.10;;;26.75;;
32393;SDS011;18853;45.426;9.206;2023-12-29T07:53:54;38.10;;;26.90;;
32393;SDS011;18853;45.426;9.206;2023-12-29T07:56:20;39.00;;;28.13;;
32393;SDS011;18853;45.426;9.206;2023-12-29T07:58:46;36.42;;;26.88;;
32393;SDS011;18853;45.426;9.206;2023-12-29T08:01:11;42.33;;;27.25;;
32393;SDS011;18853;45.426;9.206;2023-12-29T08:03:37;37.92;;;27.75;;
32393;SDS011;18853;45.426;9.206;2023-12-29T08:06:02;35.63;;;26.77;;
32393;SDS011;18853;45.426;9.206;2023-12-29T08:08:28;36.20;;;27.45;;
32393;SDS011;18853;45.426;9.206;2023-12-29T08:10:53;37.25;;;27.10;;
32393;SDS011;18853;45.426;9.206;2023-12-29T08:13:19;37.03;;;28.38;;
32393;SDS011;18853;45.426;9.206;2023-12-29T08:15:44;37.25;;;27.15;;
32393;SDS011;18853;45.426;9.206;2023-12-29T08:18:10;36.08;;;26.25;;
32393;SDS011;18853;45.426;9.206;2023-12-29T08:20:36;32.97;;;25.50;;
32393;SDS011;18853;45.426;9.206;2023-12-29T08:23:01;34.17;;;26.20;;
32393;SDS011;18853;45.426;9.206;2023-12-29T08:25:28;34.83;;;26.45;;
32393;SDS011;18853;45.426;9.206;2023-12-29T08:27:54;33.75;;;25.73;;
32393;SDS011;18853;45.426;9.206;2023-12-29T08:30:20;33.63;;;25.88;;
32393;SDS011;18853;45.426;9.206;2023-12-29T08:32:46;32.67;;;25.42;;
32393;SDS011;18853;45.426;9.206;2023-12-29T08:35:11;36.53;;;26.30;;
32393;SDS011;18853;45.426;9.206;2023-12-29T08:37:37;33.55;;;25.60;;
32393;SDS011;18853;45.426;9.206;2023-12-29T08:40:03;32.03;;;25.05;;
32393;SDS011;18853;45.426;9.206;2023-12-29T08:42:29;32.40;;;25.40;;
32393;SDS011;18853;45.426;9.206;2023-12-29T08:44:54;34.72;;;25.33;;
32393;SDS011;18853;45.426;9.206;2023-12-29T08:47:20;34.13;;;25.63;;
32393;SDS011;18853;45.426;9.206;2023-12-29T08:49:45;38.90;;;25.88;;
32393;SDS011;18853;45.426;9.206;2023-12-29T08:52:13;33.40;;;25.05;;
32393;SDS011;18853;45.426;9.206;2023-12-29T08:54:39;33.70;;;25.55;;
32393;SDS011;18853;45.426;9.206;2023-12-29T08:57:04;36.85;;;26.10;;
32393;SDS011;18853;45.426;9.206;2023-12-29T08:59:32;33.85;;;25.80;;
32393;SDS011;18853;45.426;9.206;2023-12-29T09:01:57;34.20;;;24.52;;
32393;SDS011;18853;45.426;9.206;2023-12-29T09:04:23;34.22;;;24.15;;
32393;SDS011;18853;45.426;9.206;2023-12-29T09:06:49;33.35;;;24.15;;
32393;SDS011;18853;45.426;9.206;2023-12-29T09:09:14;35.08;;;24.88;;
32393;SDS011;18853;45.426;9.206;2023-12-29T09:11:41;31.77;;;23.70;;
32393;SDS011;18853;45.426;9.206;2023-12-29T09:14:07;32.25;;;23.58;;
32393;SDS011;18853;45.426;9.206;2023-12-29T09:16:35;32.38;;;23.25;;
32393;SDS011;18853;45.426;9.206;2023-12-29T09:19:00;30.70;;;23.50;;
32393;SDS011;18853;45.426;9.206;2023-12-29T09:21:26;33.30;;;23.38;;
32393;SDS011;18853;45.426;9.206;2023-12-29T09:23:52;33.90;;;23.80;;
32393;SDS011;18853;45.426;9.206;2023-12-29T09:26:18;30.85;;;23.15;;
32393;SDS011;18853;45.426;9.206;2023-12-29T09:28:43;35.40;;;24.23;;
32393;SDS011;18853;45.426;9.206;2023-12-29T09:31:09;32.17;;;22.77;;
32393;SDS011;18853;45.426;9.206;2023-12-29T09:33:35;31.85;;;24.08;;
32393;SDS011;18853;45.426;9.206;2023-12-29T09:36:02;30.17;;;23.33;;
32393;SDS011;18853;45.426;9.206;2023-12-29T09:38:29;31.20;;;24.67;;
32393;SDS011;18853;45.426;9.206;2023-12-29T09:40:59;33.40;;;25.05;;
32393;SDS011;18853;45.426;9.206;2023-12-29T09:43:30;34.53;;;25.02;;
32393;SDS011;18853;45.426;9.206;2023-12-29T09:45:56;35.35;;;23.85;;
32393;SDS011;18853;45.426;9.206;2023-12-29T09:48:23;33.28;;;23.98;;
32393;SDS011;18853;45.426;9.206;2023-12-29T09:50:52;33.60;;;24.00;;
32393;SDS011;18853;45.426;9.206;2023-12-29T09:53:19;31.73;;;23.48;;
32393;SDS011;18853;45.426;9.206;2023-12-29T09:55:47;29.70;;;23.27;;
32393;SDS011;18853;45.426;9.206;2023-12-29T09:58:14;32.13;;;24.17;;
32393;SDS011;18853;45.426;9.206;2023-12-29T10:00:41;33.88;;;25.15;;
32393;SDS011;18853;45.426;9.206;2023-12-29T10:03:08;32.05;;;24.02;;
32393;SDS011;18853;45.426;9.206;2023-12-29T10:05:34;33.65;;;25.23;;
32393;SDS011;18853;45.426;9.206;2023-12-29T10:08:01;33.28;;;25.02;;
32393;SDS011;18853;45.426;9.206;2023-12-29T10:10:29;33.90;;;25.38;;
32393;SDS011;18853;45.426;9.206;2023-12-29T10:12:55;36.42;;;26.17;;
32393;SDS011;18853;45.426;9.206;2023-12-29T10:23:29;33.08;;;24.52;;
32393;SDS011;18853;45.426;9.206;2023-12-29T10:26:01;36.80;;;25.33;;
32393;SDS011;18853;45.426;9.206;2023-12-29T10:28:28;34.95;;;25.77;;
32393;SDS011;18853;45.426;9.206;2023-12-29T10:30:54;36.83;;;24.90;;
32393;SDS011;18853;45.426;9.206;2023-12-29T10:33:20;31.15;;;23.98;;
32393;SDS011;18853;45.426;9.206;2023-12-29T10:36:02;33.55;;;24.00;;
32393;SDS011;18853;45.426;9.206;2023-12-29T10:38:30;32.78;;;25.13;;
32393;SDS011;18853;45.426;9.206;2023-12-29T10:41:14;30.75;;;24.52;;
32393;SDS011;18853;45.426;9.206;2023-12-29T10:43:41;34.53;;;25.42;;
32393;SDS011;18853;45.426;9.206;2023-12-29T10:46:09;33.70;;;25.58;;
32393;SDS011;18853;45.426;9.206;2023-12-29T10:48:36;32.92;;;24.80;;
32393;SDS011;18853;45.426;9.206;2023-12-29T10:51:02;32.55;;;25.20;;
32393;SDS011;18853;45.426;9.206;2023-12-29T10:53:32;30.40;;;23.52;;
32393;SDS011;18853;45.426;9.206;2023-12-29T10:55:59;34.35;;;24.73;;
32393;SDS011;18853;45.426;9.206;2023-12-29T10:58:28;36.25;;;24.92;;
32393;SDS011;18853;45.426;9.206;2023-12-29T11:00:55;33.35;;;24.33;;
32393;SDS011;18853;45.426;9.206;2023-12-29T11:03:21;32.50;;;24.15;;
32393;SDS011;18853;45.426;9.206;2023-12-29T11:05:47;32.95;;;23.00;;
32393;SDS011;18853;45.426;9.206;2023-12-29T11:08:19;31.65;;;24.40;;
32393;SDS011;18853;45.426;9.206;2023-12-29T11:10:48;38.30;;;25.50;;
32393;SDS011;18853;45.426;9.206;2023-12-29T11:13:14;33.13;;;24.65;;
32393;SDS011;18853;45.426;9.206;2023-12-29T11:15:42;29.83;;;23.90;;
32393;SDS011;18853;45.426;9.206;2023-12-29T11:18:11;35.67;;;24.85;;
32393;SDS011;18853;45.426;9.206;2023-12-29T11:20:38;32.38;;;24.13;;
32393;SDS011;18853;45.426;9.206;2023-12-29T11:23:06;32.95;;;24.25;;
32393;SDS011;18853;45.426;9.206;2023-12-29T11:25:33;35.05;;;24.10;;
32393;SDS011;18853;45.426;9.206;2023-12-29T11:27:59;34.08;;;24.17;;
32393;SDS011;18853;45.426;9.206;2023-12-29T11:30:26;30.88;;;24.65;;
32393;SDS011;18853;45.426;9.206;2023-12-29T11:32:59;34.97;;;26.73;;
32393;SDS011;18853;45.426;9.206;2023-12-29T11:36:14;39.85;;;27.40;;
32393;SDS011;18853;45.426;9.206;2023-12-29T11:38:33;35.65;;;24.80;;
32393;SDS011;18853;45.426;9.206;2023-12-29T11:41:12;32.78;;;25.40;;
32393;SDS011;18853;45.426;9.206;2023-12-29T11:43:55;34.60;;;25.52;;
32393;SDS011;18853;45.426;9.206;2023-12-29T11:49:18;34.58;;;26.02;;
32393;SDS011;18853;45.426;9.206;2023-12-29T11:51:44;37.67;;;26.70;;
32393;SDS011;18853;45.426;9.206;2023-12-29T11:54:24;38.13;;;26.50;;
32393;SDS011;18853;45.426;9.206;2023-12-29T11:56:50;34.50;;;25.75;;
32393;SDS011;18853;45.426;9.206;2023-12-29T11:59:23;36.05;;;26.77;;
32393;SDS011;18853;45.426;9.206;2023-12-29T12:01:53;30.75;;;24.08;;
32393;SDS011;18853;45.426;9.206;2023-12-29T12:04:39;31.77;;;25.05;;
32393;SDS011;18853;45.426;9.206;2023-12-29T12:07:12;34.07;;;25.40;;
32393;SDS011;18853;45.426;9.206;2023-12-29T12:09:48;33.35;;;24.10;;
32393;SDS011;18853;45.426;9.206;2023-12-29T12:17:57;30.60;;;24.85;;
32393;SDS011;18853;45.426;9.206;2023-12-29T12:20:23;34.72;;;25.17;;
32393;SDS011;18853;45.426;9.206;2023-12-29T12:22:51;35.78;;;25.77;;
32393;SDS011;18853;45.426;9.206;2023-12-29T12:25:26;34.90;;;27.23;;
32393;SDS011;18853;45.426;9.206;2023-12-29T12:27:58;36.00;;;27.63;;
32393;SDS011;18853;45.426;9.206;2023-12-29T12:30:24;34.90;;;27.85;;
32393;SDS011;18853;45.426;9.206;2023-12-29T12:32:59;37.70;;;29.55;;
32393;SDS011;18853;45.426;9.206;2023-12-29T12:35:26;38.50;;;28.83;;
32393;SDS011;18853;45.426;9.206;2023-12-29T12:38:08;37.45;;;29.35;;
32393;SDS011;18853;45.426;9.206;2023-12-29T12:40:34;35.25;;;27.63;;
32393;SDS011;18853;45.426;9.206;2023-12-29T12:43:00;36.78;;;28.20;;
32393;SDS011;18853;45.426;9.206;2023-12-29T12:45:26;38.50;;;29.42;;
32393;SDS011;18853;45.426;9.206;2023-12-29T12:47:55;43.17;;;28.38;;
32393;SDS011;18853;45.426;9.206;2023-12-29T12:50:34;41.00;;;28.52;;
32393;SDS011;18853;45.426;9.206;2023-12-29T12:53:00;38.08;;;28.73;;
32393;SDS011;18853;45.426;9.206;2023-12-29T12:55:30;39.17;;;28.55;;
32393;SDS011;18853;45.426;9.206;2023-12-29T12:57:59;36.15;;;29.05;;
32393;SDS011;18853;45.426;9.206;2023-12-29T13:00:25;36.58;;;29.52;;
32393;SDS011;18853;45.426;9.206;2023-12-29T13:02:51;39.42;;;30.23;;
32393;SDS011;18853;45.426;9.206;2023-12-29T13:05:17;37.00;;;29.30;;
32393;SDS011;18853;45.426;9.206;2023-12-29T13:07:43;44.08;;;30.90;;
32393;SDS011;18853;45.426;9.206;2023-12-29T13:10:09;39.95;;;29.80;;
32393;SDS011;18853;45.426;9.206;2023-12-29T13:12:35;40.33;;;29.67;;
32393;SDS011;18853;45.426;9.206;2023-12-29T13:15:07;39.35;;;29.90;;
32393;SDS011;18853;45.426;9.206;2023-12-29T13:17:33;39.28;;;30.17;;
32393;SDS011;18853;45.426;9.206;2023-12-29T13:19:59;41.53;;;30.92;;
32393;SDS011;18853;45.426;9.206;2023-12-29T13:22:25;45.72;;;30.50;;
32393;SDS011;18853;45.426;9.206;2023-12-29T13:24:54;38.25;;;29.73;;
32393;SDS011;18853;45.426;9.206;2023-12-29T13:27:20;40.33;;;31.65;;
32393;SDS011;18853;45.426;9.206;2023-12-29T13:29:46;39.03;;;29.55;;
32393;SDS011;18853;45.426;9.206;2023-12-29T13:37:31;34.60;;;28.92;;
32393;SDS011;18853;45.426;9.206;2023-12-29T13:42:57;40.75;;;30.08;;
32393;SDS011;18853;45.426;9.206;2023-12-29T13:45:26;44.03;;;31.73;;
32393;SDS011;18853;45.426;9.206;2023-12-29T13:47:52;38.78;;;30.48;;
32393;SDS011;18853;45.426;9.206;2023-12-29T13:50:20;41.05;;;29.65;;
32393;SDS011;18853;45.426;9.206;2023-12-29T13:52:47;38.67;;;31.65;;
32393;SDS011;18853;45.426;9.206;2023-12-29T13:55:20;45.72;;;31.75;;
32393;SDS011;18853;45.426;9.206;2023-12-29T14:02:48;38.47;;;30.17;;
32393;SDS011;18853;45.426;9.206;2023-12-29T14:05:24;37.45;;;30.73;;
32393;SDS011;18853;45.426;9.206;2023-12-29T14:08:18;41.42;;;31.98;;
32393;SDS011;18853;45.426;9.206;2023-12-29T14:10:51;37.80;;;29.92;;
32393;SDS011;18853;45.426;9.206;2023-12-29T14:13:18;36.65;;;29.35;;
32393;SDS011;18853;45.426;9.206;2023-12-29T14:15:45;40.67;;;31.08;;
32393;SDS011;18853;45.426;9.206;2023-12-29T14:20:48;41.47;;;32.30;;
32393;SDS011;18853;45.426;9.206;2023-12-29T14:23:17;39.65;;;32.40;;
32393;SDS011;18853;45.426;9.206;2023-12-29T14:25:44;44.00;;;32.13;;
32393;SDS011;18853;45.426;9.206;2023-12-29T14:28:15;43.83;;;31.90;;
32393;SDS011;18853;45.426;9.206;2023-12-29T14:30:46;43.22;;;32.78;;
32393;SDS011;18853;45.426;9.206;2023-12-29T14:33:11;40.83;;;31.75;;
32393;SDS011;18853;45.426;9.206;2023-12-29T14:35:37;41.63;;;32.88;;
32393;SDS011;18853;45.426;9.206;2023-12-29T14:38:12;39.22;;;32.03;;
32393;SDS011;18853;45.426;9.206;2023-12-29T14:40:46;38.92;;;32.20;;
32393;SDS011;18853;45.426;9.206;2023-12-29T14:43:11;39.28;;;32.13;;
32393;SDS011;18853;45.426;9.206;2023-12-29T14:45:37;40.10;;;31.73;;
32393;SDS011;18853;45.426;9.206;2023-12-29T14:48:05;42.15;;;32.85;;
32393;SDS011;18853;45.426;9.206;2023-12-29T14:50:34;41.90;;;31.05;;
32393;SDS011;18853;45.426;9.206;2023-12-29T14:53:00;48.50;;;32.15;;
32393;SDS011;18853;45.426;9.206;2023-12-29T14:55:26;40.92;;;31.73;;
32393;SDS011;18853;45.426;9.206;2023-12-29T14:57:51;41.95;;;31.85;;
32393;SDS011;18853;45.426;9.206;2023-12-29T15:00:17;41.80;;;32.33;;